SWA2471 KBWI-KDEN
Flight info
| Callsign | SWA2471 |
|---|---|
| Flight time | N/A |
| Altitude | 30000 |
| Route | LINSE2 MCRAY Q178 DJB CPONE JOT J60 IOW DSM OBH BRWRY LAWGR4 |
| Aircraft | B738/M-SADE2E3GIJ4RWZ/LB1D1 |
Departure
| Time | 2026-05-05 18:21 |
|---|---|
| Airport | Baltimore/Washington International Thurgood Marshall Airport (KBWI) |
Arrival
| Time | N/A |
|---|---|
| Airport | Denver International Airport (KDEN) |
| Time | Latitude | Longitude | Altitude | Speed | Heading |
|---|---|---|---|---|---|
| 2026-05-05 17:27 | 39.17707 | -76.66911 | 148 ft | 0 kts | 236° |
| 2026-05-05 18:12 | 39.17710 | -76.66905 | 148 ft | 2 kts | 236° |
| 2026-05-05 18:12 | 39.17718 | -76.66890 | 148 ft | 2 kts | 235° |
| 2026-05-05 18:12 | 39.17726 | -76.66876 | 148 ft | 0 kts | 236° |
| 2026-05-05 18:13 | 39.17733 | -76.66865 | 148 ft | 2 kts | 206° |
| 2026-05-05 18:13 | 39.17748 | -76.66862 | 148 ft | 2 kts | 163° |
| 2026-05-05 18:13 | 39.17754 | -76.66866 | 149 ft | 0 kts | 139° |
| 2026-05-05 18:13 | 39.17759 | -76.66870 | 149 ft | 0 kts | 143° |
| 2026-05-05 18:16 | 39.17754 | -76.66866 | 148 ft | 3 kts | 143° |
| 2026-05-05 18:16 | 39.17721 | -76.66835 | 148 ft | 8 kts | 144° |
| 2026-05-05 18:16 | 39.17668 | -76.66788 | 148 ft | 10 kts | 152° |
| 2026-05-05 18:16 | 39.17599 | -76.66777 | 148 ft | 7 kts | 184° |
| 2026-05-05 18:17 | 39.17592 | -76.66778 | 148 ft | 0 kts | 184° |
| 2026-05-05 18:17 | 39.17582 | -76.66779 | 148 ft | 5 kts | 184° |
| 2026-05-05 18:18 | 39.17529 | -76.66745 | 147 ft | 13 kts | 112° |
| 2026-05-05 18:18 | 39.17524 | -76.66592 | 147 ft | 19 kts | 75° |
| 2026-05-05 18:18 | 39.17564 | -76.66453 | 146 ft | 18 kts | 116° |
| 2026-05-05 18:18 | 39.17488 | -76.66307 | 143 ft | 21 kts | 124° |
| 2026-05-05 18:19 | 39.17451 | -76.66124 | 139 ft | 21 kts | 95° |
| 2026-05-05 18:19 | 39.17439 | -76.65926 | 135 ft | 24 kts | 95° |
| 2026-05-05 18:19 | 39.17426 | -76.65702 | 129 ft | 24 kts | 93° |
| 2026-05-05 18:19 | 39.17378 | -76.65530 | 125 ft | 20 kts | 164° |
| 2026-05-05 18:20 | 39.17282 | -76.65601 | 126 ft | 19 kts | 270° |
| 2026-05-05 18:20 | 39.17301 | -76.65951 | 135 ft | 68 kts | 274° |
| 2026-05-05 18:20 | 39.17351 | -76.66813 | 146 ft | 123 kts | 274° |
| 2026-05-05 18:20 | 39.17427 | -76.68123 | 147 ft | 167 kts | 274° |
| 2026-05-05 18:21 | 39.17557 | -76.69626 | 614 ft | 169 kts | 270° |
| 2026-05-05 18:21 | 39.17621 | -76.71074 | 1294 ft | 161 kts | 266° |
| 2026-05-05 18:21 | 39.17653 | -76.72547 | 1644 ft | 170 kts | 267° |
| 2026-05-05 18:21 | 39.17722 | -76.74133 | 1872 ft | 188 kts | 267° |
| 2026-05-05 18:22 | 39.17814 | -76.75893 | 2115 ft | 206 kts | 270° |
| 2026-05-05 18:22 | 39.17976 | -76.77826 | 2370 ft | 226 kts | 271° |
| 2026-05-05 18:22 | 39.18163 | -76.79811 | 3042 ft | 223 kts | 272° |
| 2026-05-05 18:22 | 39.18351 | -76.81767 | 3595 ft | 227 kts | 272° |
| 2026-05-05 18:23 | 39.18533 | -76.83861 | 3843 ft | 244 kts | 271° |
| 2026-05-05 18:23 | 39.18715 | -76.86074 | 4289 ft | 253 kts | 272° |
| 2026-05-05 18:23 | 39.18898 | -76.88336 | 4886 ft | 256 kts | 271° |
| 2026-05-05 18:23 | 39.19080 | -76.90616 | 5541 ft | 259 kts | 272° |
| 2026-05-05 18:24 | 39.19272 | -76.92915 | 6266 ft | 260 kts | 272° |
| 2026-05-05 18:24 | 39.19470 | -76.95203 | 7023 ft | 259 kts | 272° |
| 2026-05-05 18:24 | 39.19688 | -76.97504 | 7760 ft | 260 kts | 275° |
| 2026-05-05 18:24 | 39.20025 | -76.99771 | 8534 ft | 259 kts | 277° |
| 2026-05-05 18:25 | 39.20388 | -77.01999 | 9281 ft | 258 kts | 276° |
| 2026-05-05 18:25 | 39.20633 | -77.03497 | 9745 ft | 258 kts | 276° |
| 2026-05-05 18:25 | 39.21117 | -77.06557 | 10513 ft | 265 kts | 276° |
| 2026-05-05 18:25 | 39.21478 | -77.08933 | 10843 ft | 278 kts | 276° |
| 2026-05-05 18:26 | 39.21867 | -77.11435 | 11156 ft | 293 kts | 279° |
| 2026-05-05 18:26 | 39.22567 | -77.13969 | 11412 ft | 315 kts | 295° |
| 2026-05-05 18:26 | 39.23998 | -77.16221 | 11749 ft | 337 kts | 310° |
| 2026-05-05 18:26 | 39.25817 | -77.18265 | 11985 ft | 355 kts | 315° |
| 2026-05-05 18:27 | 39.27760 | -77.20286 | 12446 ft | 364 kts | 315° |
| 2026-05-05 18:27 | 39.29742 | -77.22343 | 13022 ft | 367 kts | 315° |
| 2026-05-05 18:27 | 39.31724 | -77.24441 | 13735 ft | 367 kts | 314° |
| 2026-05-05 18:27 | 39.33664 | -77.26546 | 14300 ft | 370 kts | 313° |
| 2026-05-05 18:28 | 39.37033 | -77.31512 | 15514 ft | 366 kts | 297° |
| 2026-05-05 18:28 | 39.38216 | -77.34383 | 16057 ft | 367 kts | 292° |
| 2026-05-05 18:28 | 39.39238 | -77.37419 | 16604 ft | 369 kts | 289° |
| 2026-05-05 18:29 | 39.40174 | -77.40492 | 17130 ft | 372 kts | 288° |
| 2026-05-05 18:29 | 39.41100 | -77.43639 | 17740 ft | 374 kts | 288° |
| 2026-05-05 18:29 | 39.42024 | -77.46783 | 18212 ft | 378 kts | 288° |
| 2026-05-05 18:29 | 39.42963 | -77.49949 | 18758 ft | 381 kts | 289° |
| 2026-05-05 18:30 | 39.43927 | -77.53174 | 19244 ft | 385 kts | 289° |
| 2026-05-05 18:30 | 39.44897 | -77.56393 | 19710 ft | 389 kts | 289° |
| 2026-05-05 18:30 | 39.45884 | -77.59653 | 20198 ft | 392 kts | 290° |
| 2026-05-05 18:30 | 39.46882 | -77.62951 | 20641 ft | 396 kts | 290° |
| 2026-05-05 18:31 | 39.47879 | -77.66249 | 21157 ft | 398 kts | 289° |
| 2026-05-05 18:31 | 39.48896 | -77.69619 | 21583 ft | 402 kts | 289° |
| 2026-05-05 18:31 | 39.49919 | -77.73011 | 22043 ft | 404 kts | 289° |
| 2026-05-05 18:31 | 39.50934 | -77.76381 | 22469 ft | 408 kts | 289° |
| 2026-05-05 18:32 | 39.51969 | -77.79823 | 22979 ft | 409 kts | 289° |
| 2026-05-05 18:32 | 39.52990 | -77.83225 | 23352 ft | 413 kts | 289° |
| 2026-05-05 18:32 | 39.54038 | -77.86719 | 23880 ft | 413 kts | 290° |
| 2026-05-05 18:32 | 39.55083 | -77.90168 | 24346 ft | 415 kts | 290° |
| 2026-05-05 18:33 | 39.56145 | -77.93630 | 24719 ft | 419 kts | 290° |
| 2026-05-05 18:33 | 39.57223 | -77.97134 | 25127 ft | 421 kts | 290° |
| 2026-05-05 18:33 | 39.58317 | -78.00689 | 25504 ft | 424 kts | 290° |
| 2026-05-05 18:33 | 39.59398 | -78.04205 | 25875 ft | 426 kts | 290° |
| 2026-05-05 18:34 | 39.60495 | -78.07785 | 26213 ft | 429 kts | 290° |
| 2026-05-05 18:34 | 39.61592 | -78.11369 | 26592 ft | 431 kts | 290° |
| 2026-05-05 18:34 | 39.62700 | -78.14993 | 26925 ft | 434 kts | 290° |
| 2026-05-05 18:34 | 39.63813 | -78.18640 | 27393 ft | 433 kts | 290° |
| 2026-05-05 18:35 | 39.64899 | -78.22206 | 27973 ft | 429 kts | 290° |
| 2026-05-05 18:35 | 39.65992 | -78.25799 | 28581 ft | 424 kts | 290° |
| 2026-05-05 18:35 | 39.67061 | -78.29318 | 29099 ft | 421 kts | 290° |
| 2026-05-05 18:35 | 39.68126 | -78.32828 | 29562 ft | 419 kts | 290° |
| 2026-05-05 18:36 | 39.69181 | -78.36313 | 29890 ft | 419 kts | 290° |
| 2026-05-05 18:36 | 39.70256 | -78.39877 | 29900 ft | 420 kts | 290° |
| 2026-05-05 18:36 | 39.72364 | -78.46871 | 29901 ft | 418 kts | 289° |
| 2026-05-05 18:37 | 39.74494 | -78.53954 | 29904 ft | 421 kts | 290° |
| 2026-05-05 18:37 | 39.76603 | -78.60984 | 29906 ft | 420 kts | 289° |
| 2026-05-05 18:38 | 39.78725 | -78.68084 | 29908 ft | 421 kts | 289° |
| 2026-05-05 18:38 | 39.80825 | -78.75117 | 29908 ft | 419 kts | 289° |
| 2026-05-05 18:39 | 39.82917 | -78.82146 | 29920 ft | 418 kts | 289° |
| 2026-05-05 18:39 | 39.85006 | -78.89185 | 29923 ft | 417 kts | 288° |
| 2026-05-05 18:40 | 39.87088 | -78.96222 | 29938 ft | 419 kts | 288° |
| 2026-05-05 18:40 | 39.89177 | -79.03305 | 29935 ft | 417 kts | 288° |
| 2026-05-05 18:41 | 39.91243 | -79.10323 | 29933 ft | 418 kts | 288° |
| 2026-05-05 18:41 | 39.93311 | -79.17361 | 29932 ft | 417 kts | 288° |
| 2026-05-05 18:42 | 39.95370 | -79.24387 | 29923 ft | 415 kts | 288° |
| 2026-05-05 18:42 | 39.97420 | -79.31400 | 29910 ft | 416 kts | 288° |
| 2026-05-05 18:43 | 39.99490 | -79.38369 | 29901 ft | 415 kts | 290° |
| 2026-05-05 18:43 | 40.02125 | -79.45094 | 29896 ft | 418 kts | 298° |
| 2026-05-05 18:44 | 40.05332 | -79.51489 | 29893 ft | 422 kts | 301° |
| 2026-05-05 18:44 | 40.08624 | -79.57764 | 29889 ft | 421 kts | 301° |
| 2026-05-05 18:45 | 40.11888 | -79.64021 | 29887 ft | 418 kts | 300° |
| 2026-05-05 18:45 | 40.15141 | -79.70328 | 29881 ft | 417 kts | 300° |
| 2026-05-05 18:46 | 40.18370 | -79.76639 | 29875 ft | 417 kts | 300° |
| 2026-05-05 18:46 | 40.21568 | -79.82918 | 29871 ft | 416 kts | 300° |
| 2026-05-05 18:47 | 40.24758 | -79.89192 | 29870 ft | 416 kts | 300° |
| 2026-05-05 18:47 | 40.27953 | -79.95493 | 29866 ft | 415 kts | 299° |
| 2026-05-05 18:48 | 40.31112 | -80.01734 | 29866 ft | 415 kts | 299° |
| 2026-05-05 18:48 | 40.34302 | -80.08057 | 29865 ft | 412 kts | 299° |
| 2026-05-05 18:49 | 40.37452 | -80.14309 | 29864 ft | 414 kts | 299° |
| 2026-05-05 18:49 | 40.40601 | -80.20570 | 29852 ft | 412 kts | 299° |
| 2026-05-05 18:50 | 40.43749 | -80.26846 | 29857 ft | 414 kts | 299° |
| 2026-05-05 18:50 | 40.46891 | -80.33117 | 29854 ft | 411 kts | 299° |
| 2026-05-05 18:51 | 40.50032 | -80.39398 | 29847 ft | 412 kts | 299° |
| 2026-05-05 18:51 | 40.53170 | -80.45693 | 29853 ft | 411 kts | 299° |
| 2026-05-05 18:52 | 40.56277 | -80.51936 | 29845 ft | 412 kts | 299° |
| 2026-05-05 18:52 | 40.59415 | -80.58247 | 29849 ft | 412 kts | 299° |
| 2026-05-05 18:53 | 40.62474 | -80.64404 | 29841 ft | 389 kts | 299° |
| 2026-05-05 18:53 | 40.65390 | -80.70283 | 29838 ft | 387 kts | 298° |
| 2026-05-05 18:54 | 40.68320 | -80.76229 | 29839 ft | 388 kts | 298° |
| 2026-05-05 18:54 | 40.71251 | -80.82180 | 29839 ft | 387 kts | 298° |
| 2026-05-05 18:55 | 40.74157 | -80.88095 | 29838 ft | 387 kts | 298° |
| 2026-05-05 18:55 | 40.77078 | -80.94044 | 29829 ft | 387 kts | 298° |
| 2026-05-05 18:56 | 40.79968 | -80.99943 | 29832 ft | 384 kts | 298° |
| 2026-05-05 18:56 | 40.82859 | -81.05856 | 29834 ft | 384 kts | 298° |
| 2026-05-05 18:57 | 40.84298 | -81.08798 | 29834 ft | 383 kts | 298° |